Time;durP1;ratioP1;P1;durP2;ratioP2;P2;SDS_P1;SDS_P2;PMS_P1;PMS_P2;Temp;Humidity;BMP_temperature;BMP_pressure;BME280_temperature;BME280_humidity;BME280_pressure;Samples;Min_cycle;Max_cycle;Signal;HPM_P1;HPM_P2
2021/03/20 00:01:24;;;;;;;5.40;1.60;;;;;;;1.08;54.63;101439.81;5105586;28;20020;-63
2021/03/20 00:03:51;;;;;;;2.60;1.38;;;;;;;1.07;54.89;101440.63;5105583;28;20024;-65
2021/03/20 00:06:20;;;;;;;2.85;1.92;;;;;;;0.99;55.21;101448.78;5105346;28;20032;-64
2021/03/20 00:08:48;;;;;;;5.07;1.77;;;;;;;1.03;55.53;101442.16;5105550;28;20044;-63
2021/03/20 00:11:14;;;;;;;4.18;1.85;;;;;;;1.04;55.56;101455.81;5105460;28;20050;-65
2021/03/20 00:13:41;;;;;;;3.40;1.40;;;;;;;1.04;55.48;101455.81;5105519;28;20032;-64
2021/03/20 00:16:07;;;;;;;4.13;1.95;;;;;;;1.05;55.53;101457.56;5105304;28;20051;-64
2021/03/20 00:18:33;;;;;;;3.13;1.95;;;;;;;1.11;55.33;101461.31;5105353;28;20046;-64
2021/03/20 00:20:58;;;;;;;3.28;1.70;;;;;;;1.13;55.37;101457.94;5105253;28;20032;-64
2021/03/20 00:23:25;;;;;;;6.50;1.90;;;;;;;1.17;55.40;101457.25;5105178;28;20043;-63
2021/03/20 00:25:51;;;;;;;3.65;1.42;;;;;;;1.20;55.37;101450.59;5104567;28;20070;-63
2021/03/20 00:28:21;;;;;;;4.90;1.75;;;;;;;1.19;55.24;101451.44;5105169;28;20031;-63
2021/03/20 00:30:56;;;;;;;4.40;2.08;;;;;;;1.20;55.58;101437.81;5105160;28;20024;-65
2021/03/20 00:33:23;;;;;;;4.57;1.98;;;;;;;1.19;55.40;101438.63;5105092;28;20107;-64
2021/03/20 00:35:50;;;;;;;8.52;2.30;;;;;;;1.17;55.63;101424.88;5104864;28;20043;-64
2021/03/20 00:38:16;;;;;;;4.70;1.58;;;;;;;1.18;55.77;101415.53;5104761;28;20027;-64
2021/03/20 00:40:42;;;;;;;8.25;1.83;;;;;;;1.19;55.70;101415.59;5104788;28;20088;-64
2021/03/20 00:43:07;;;;;;;2.90;1.85;;;;;;;1.14;55.64;101411.94;5104714;28;20020;-65
2021/03/20 00:45:33;;;;;;;4.30;1.90;;;;;;;1.17;55.84;101406.97;5104623;28;20074;-64
2021/03/20 00:48:08;;;;;;;5.80;1.80;;;;;;;1.19;55.70;101420.72;5104558;28;20028;-65
2021/03/20 00:50:34;;;;;;;5.55;2.20;;;;;;;1.18;55.91;101408.72;5104600;28;20293;-64
2021/03/20 00:53:00;;;;;;;3.30;1.85;;;;;;;1.17;55.96;101404.41;5104255;28;20020;-64
2021/03/20 00:55:25;;;;;;;3.45;1.70;;;;;;;1.19;56.13;101402.81;5104649;28;20031;-64
2021/03/20 00:57:50;;;;;;;2.20;1.10;;;;;;;1.17;56.49;101391.63;5104236;28;20027;-64
2021/03/20 01:00:19;;;;;;;5.70;1.80;;;;;;;1.21;56.43;101403.78;5104498;28;20020;-64
2021/03/20 01:02:44;;;;;;;6.82;1.85;;;;;;;1.20;56.70;101394.31;5103455;28;20088;-64
2021/03/20 01:05:11;;;;;;;5.47;1.70;;;;;;;1.24;56.53;101390.25;5104017;28;20031;-64
2021/03/20 01:07:37;;;;;;;5.10;2.63;;;;;;;1.26;56.83;101382.63;5104149;28;20464;-64
2021/03/20 01:10:07;;;;;;;7.32;2.13;;;;;;;1.31;56.68;101386.28;5104530;28;20031;-64
2021/03/20 01:12:32;;;;;;;4.60;2.17;;;;;;;1.36;56.51;101380.56;5104046;28;20020;-64
2021/03/20 01:14:57;;;;;;;5.45;2.10;;;;;;;1.39;56.67;101378.97;5104279;28;20031;-64
2021/03/20 01:17:23;;;;;;;5.30;1.80;;;;;;;1.39;56.95;101369.56;5104120;28;20107;-63
2021/03/20 01:19:48;;;;;;;10.43;2.33;;;;;;;1.45;56.90;101369.84;5104132;28;20370;-64
2021/03/20 01:22:14;;;;;;;5.32;1.73;;;;;;;1.45;57.18;101369.84;5119579;28;20047;-64
2021/03/20 01:24:39;;;;;;;5.95;1.80;;;;;;;1.50;57.02;101361.50;5104104;28;20016;-64
2021/03/20 01:27:05;;;;;;;3.40;1.75;;;;;;;1.51;57.17;101350.47;5103492;28;20024;-64
2021/03/20 01:29:30;;;;;;;4.57;1.90;;;;;;;1.57;56.80;101354.19;5104060;28;20028;-65
2021/03/20 01:31:56;;;;;;;6.60;2.10;;;;;;;1.58;57.12;101350.78;5103880;28;20032;-64
2021/03/20 01:34:21;;;;;;;5.82;2.15;;;;;;;1.59;57.31;101351.69;5104120;28;20028;-65
2021/03/20 01:36:46;;;;;;;9.15;2.08;;;;;;;1.58;57.50;101348.22;5103792;28;20020;-64
2021/03/20 01:39:12;;;;;;;4.82;1.85;;;;;;;1.61;57.32;101334.72;5103829;28;20031;-65
2021/03/20 01:41:41;;;;;;;3.05;1.70;;;;;;;1.60;57.60;101323.59;5103537;28;20359;-64
2021/03/20 01:44:07;;;;;;;4.07;2.00;;;;;;;1.59;57.75;101323.53;5104207;28;20046;-65
2021/03/20 01:46:38;;;;;;;6.45;2.08;;;;;;;1.64;57.70;101329.72;5103441;28;20040;-64
2021/03/20 01:49:15;;;;;;;3.17;1.83;;;;;;;1.66;57.78;101320.41;5103832;28;20028;-64
2021/03/20 01:51:41;;;;;;;4.72;1.85;;;;;;;1.68;58.13;101323.91;5103755;28;20047;-64
2021/03/20 01:54:07;;;;;;;7.43;2.20;;;;;;;1.70;58.19;101326.53;5103641;28;20039;-64
2021/03/20 01:56:39;;;;;;;9.20;2.35;;;;;;;1.71;58.34;101336.84;5103377;28;20420;-63
2021/03/20 01:59:06;;;;;;;5.82;1.95;;;;;;;1.74;58.43;101331.00;5102369;28;20047;-64
2021/03/20 02:01:32;;;;;;;4.22;1.60;;;;;;;1.75;59.11;101319.06;5103609;28;20020;-63
2021/03/20 02:03:59;;;;;;;5.38;1.95;;;;;;;1.78;58.99;101316.63;5103730;28;20100;-64
2021/03/20 02:06:25;;;;;;;3.97;1.60;;;;;;;1.79;59.25;101313.28;5103648;28;20024;-63
2021/03/20 02:08:52;;;;;;;10.60;2.15;;;;;;;1.83;59.29;101305.78;5103477;28;20020;-63
2021/03/20 02:11:24;;;;;;;4.15;1.83;;;;;;;1.87;59.50;101293.97;5103320;28;20126;-63
2021/03/20 02:13:58;;;;;;;3.45;1.80;;;;;;;1.87;59.62;101291.41;5103493;28;20031;-63
2021/03/20 02:16:48;;;;;;;7.53;1.88;;;;;;;1.84;60.04;101266.56;5107717;28;20126;-63
2021/03/20 02:19:17;;;;;;;3.13;1.42;;;;;;;1.90;59.87;101283.00;5107718;28;20030;-63
2021/03/20 02:22:03;;;;;;;8.13;1.70;;;;;;;1.91;60.38;101261.69;5107495;28;20461;-62
2021/03/20 02:24:53;;;;;;;5.50;2.15;;;;;;;1.95;60.83;101261.03;5107560;28;20063;-63
2021/03/20 02:27:30;;;;;;;14.45;2.13;;;;;;;1.97;60.95;101255.13;5107016;28;20030;-62
2021/03/20 02:30:05;;;;;;;3.47;1.42;;;;;;;1.99;61.52;101252.63;5107468;28;20020;-63
2021/03/20 02:33:01;;;;;;;9.65;2.50;;;;;;;2.03;61.80;101245.97;5107204;28;20083;-64
2021/03/20 02:35:54;;;;;;;4.85;2.15;;;;;;;2.04;62.07;101242.56;5107275;28;20035;-63
2021/03/20 02:38:31;;;;;;;4.93;2.17;;;;;;;2.05;62.28;101244.31;5107187;28;20027;-63
2021/03/20 02:41:10;;;;;;;4.88;1.88;;;;;;;2.05;62.66;101240.06;5107058;28;20024;-62
2021/03/20 02:43:54;;;;;;;7.20;1.88;;;;;;;2.06;62.91;101246.94;5107436;28;20103;-63
2021/03/20 02:46:22;;;;;;;7.63;1.83;;;;;;;2.03;63.12;101238.28;5106790;28;20136;-63
2021/03/20 02:49:01;;;;;;;10.00;2.55;;;;;;;2.06;63.26;101235.84;5107143;28;20085;-63
2021/03/20 02:51:43;;;;;;;2.58;1.35;;;;;;;2.10;63.44;101223.22;5106921;28;20077;-63
2021/03/20 02:54:32;;;;;;;12.82;2.45;;;;;;;2.13;63.43;101213.88;5107064;28;20083;-63
2021/03/20 02:57:13;;;;;;;4.28;2.72;;;;;;;2.12;63.88;101214.69;5106618;28;20512;-63
2021/03/20 02:59:43;;;;;;;2.00;1.25;;;;;;;2.10;63.86;101196.69;5107116;28;20035;-63
2021/03/20 03:02:12;;;;;;;11.23;2.65;;;;;;;2.09;63.83;101177.03;5106862;28;20024;-63
2021/03/20 03:04:53;;;;;;;6.32;2.30;;;;;;;2.08;64.18;101182.94;5106876;28;20111;-62
2021/03/20 03:07:29;;;;;;;6.60;2.03;;;;;;;2.07;64.66;101171.84;5106547;28;20035;-62
2021/03/20 03:10:13;;;;;;;5.03;2.42;;;;;;;2.06;64.84;101182.03;5106817;28;20020;-62
2021/03/20 03:12:54;;;;;;;6.13;2.28;;;;;;;2.04;65.21;101186.22;5106433;28;20039;-63
2021/03/20 03:15:25;;;;;;;10.50;2.83;;;;;;;2.05;65.03;101180.28;5106763;28;20044;-62
2021/03/20 03:17:58;;;;;;;5.97;1.92;;;;;;;2.06;65.54;101179.47;5106434;28;20024;-63
2021/03/20 03:20:28;;;;;;;5.45;1.77;;;;;;;2.04;65.80;101175.97;5106690;28;20480;-63
2021/03/20 03:23:02;;;;;;;8.57;2.63;;;;;;;2.04;65.96;101175.97;5122064;28;20035;-63
2021/03/20 03:25:30;;;;;;;12.02;2.97;;;;;;;2.04;65.78;101183.66;5106210;28;20026;-64
2021/03/20 03:28:00;;;;;;;13.00;4.90;;;;;;;2.14;65.46;101192.59;5104944;28;20042;-63
2021/03/20 03:30:27;;;;;;;5.38;2.00;;;;;;;2.14;65.55;101198.56;5106411;28;20083;-63
2021/03/20 03:33:03;;;;;;;8.52;3.17;;;;;;;2.18;65.63;101194.44;5106293;28;20027;-63
2021/03/20 03:35:41;;;;;;;10.73;3.55;;;;;;;2.22;65.62;101184.38;5104936;28;20036;-63
2021/03/20 03:38:36;;;;;;;9.18;2.60;;;;;;;2.25;65.66;101185.31;5105917;28;20020;-63
2021/03/20 03:41:13;;;;;;;8.88;2.50;;;;;;;2.24;65.90;101179.31;5106196;28;20105;-62
2021/03/20 03:43:38;;;;;;;10.73;3.55;;;;;;;2.22;66.09;101171.56;5106248;28;20023;-63
2021/03/20 03:46:05;;;;;;;6.97;2.50;;;;;;;2.18;66.55;101156.91;5105677;28;20044;-64
2021/03/20 03:48:30;;;;;;;4.65;2.20;;;;;;;2.19;66.48;101157.78;5105901;28;20032;-63
2021/03/20 03:51:08;;;;;;;7.50;3.20;;;;;;;2.20;66.52;101149.25;5106144;28;20020;-63
2021/03/20 03:53:34;;;;;;;4.95;2.40;;;;;;;2.20;66.61;101150.16;5106078;28;20023;-64
2021/03/20 03:56:21;;;;;;;10.30;2.58;;;;;;;2.21;66.41;101139.06;5105790;28;20368;-64
2021/03/20 03:59:08;;;;;;;7.45;2.78;;;;;;;2.22;66.92;101120.31;5105785;28;20020;-64
2021/03/20 04:02:04;;;;;;;16.75;3.72;;;;;;;2.22;67.04;101119.47;5105970;28;20031;-64
2021/03/20 04:04:58;;;;;;;3.75;1.92;;;;;;;2.16;67.61;101112.41;5105780;28;20206;-64
2021/03/20 04:07:51;;;;;;;7.55;3.15;;;;;;;2.15;67.65;101100.41;5105665;28;20104;-64
2021/03/20 04:10:31;;;;;;;;;;;;;;;2.20;67.61;101096.34;5106209;28;20324;-63
2021/03/20 04:13:06;;;;;;;10.43;3.65;;;;;;;2.21;67.49;101094.63;5105331;28;19908;-65
2021/03/20 04:15:56;;;;;;;10.73;3.00;;;;;;;2.22;67.54;101093.84;5105700;28;20024;-64
2021/03/20 04:18:36;;;;;;;9.93;3.80;;;;;;;2.22;67.90;101092.13;5121222;28;20028;-63
2021/03/20 04:21:20;;;;;;;10.60;3.33;;;;;;;2.25;68.18;101085.38;5105574;28;20071;-63
2021/03/20 04:23:57;;;;;;;10.25;3.08;;;;;;;2.26;68.20;101088.00;5105163;28;20024;-63
2021/03/20 04:26:34;;;;;;;9.18;3.63;;;;;;;2.26;68.83;101097.38;5104879;28;20046;-63
2021/03/20 04:29:22;;;;;;;6.07;3.30;;;;;;;2.26;69.36;101082.00;5105059;28;20028;-63
2021/03/20 04:31:52;;;;;;;13.50;3.10;;;;;;;2.25;69.47;101087.94;5105269;28;20115;-63
2021/03/20 04:34:33;;;;;;;14.48;3.80;;;;;;;2.31;69.34;101095.84;5105053;28;20031;-63
2021/03/20 04:37:03;;;;;;;9.50;3.13;;;;;;;2.30;69.47;101092.41;5104910;28;20024;-63
2021/03/20 04:39:33;;;;;;;13.55;3.70;;;;;;;2.32;69.70;101095.03;5104905;28;20047;-63
2021/03/20 04:41:59;;;;;;;11.55;3.88;;;;;;;2.31;69.71;101093.28;5104661;28;20047;-64
2021/03/20 04:44:25;;;;;;;10.55;3.50;;;;;;;2.38;69.99;101094.41;5105014;28;20028;-63
2021/03/20 04:46:51;;;;;;;13.70;4.05;;;;;;;2.40;69.94;101098.75;5104861;28;20020;-64
2021/03/20 04:49:32;;;;;;;11.35;3.10;;;;;;;2.29;70.03;101085.53;5104680;28;20048;-64
2021/03/20 04:52:16;;;;;;;10.27;3.92;;;;;;;2.38;70.58;101100.38;5104732;28;20182;-64
2021/03/20 04:54:42;;;;;;;12.88;3.55;;;;;;;2.41;70.15;101100.47;5104777;28;20084;-64
2021/03/20 04:57:19;;;;;;;8.60;3.75;;;;;;;2.45;69.97;101088.66;5104377;28;20104;-64
2021/03/20 04:59:52;;;;;;;11.35;4.07;;;;;;;2.46;70.14;101091.28;5104646;28;20032;-64
2021/03/20 05:02:42;;;;;;;13.52;4.13;;;;;;;2.48;70.47;101083.66;5104677;28;20035;-64
2021/03/20 05:05:30;;;;;;;11.55;3.72;;;;;;;2.50;70.18;101079.47;5104543;28;20229;-64
2021/03/20 05:08:01;;;;;;;11.70;3.40;;;;;;;2.52;70.41;101082.06;5104288;28;20091;-64
2021/03/20 05:10:38;;;;;;;17.27;4.32;;;;;;;2.50;70.80;101081.13;5104532;28;20023;-64
2021/03/20 05:13:11;;;;;;;7.03;3.97;;;;;;;2.52;71.05;101061.56;5104374;28;20028;-64
2021/03/20 05:15:36;;;;;;;12.27;3.00;;;;;;;2.52;71.19;101059.88;5104417;28;20390;-64
2021/03/20 05:18:02;;;;;;;8.85;3.78;;;;;;;2.51;71.41;101059.84;5104245;28;20472;-64
2021/03/20 05:20:27;;;;;;;8.55;3.40;;;;;;;2.47;71.67;101048.59;5104337;28;20107;-65
2021/03/20 05:22:53;;;;;;;18.63;3.63;;;;;;;2.48;71.88;101045.19;5104020;28;20024;-64
2021/03/20 05:25:23;;;;;;;13.55;4.28;;;;;;;2.50;72.00;101035.00;5104100;28;20077;-64
2021/03/20 05:27:48;;;;;;;14.82;3.70;;;;;;;2.50;72.08;101033.31;5103678;28;20039;-63
2021/03/20 05:30:15;;;;;;;9.25;3.80;;;;;;;2.50;72.31;101022.19;5104370;28;20347;-64
2021/03/20 05:32:40;;;;;;;20.88;5.88;;;;;;;2.52;72.27;101025.69;5103784;28;20024;-64
2021/03/20 05:35:10;;;;;;;13.15;3.67;;;;;;;2.53;72.17;101020.59;5104029;28;20024;-64
2021/03/20 05:37:38;;;;;;;8.90;3.63;;;;;;;2.53;72.36;101018.03;5103856;28;20079;-64
2021/03/20 05:40:31;;;;;;;12.18;3.95;;;;;;;2.56;72.33;101012.13;5103693;28;20028;-64
2021/03/20 05:43:28;;;;;;;6.68;3.47;;;;;;;2.57;72.45;101011.34;5103638;28;20028;-64
2021/03/20 05:46:23;;;;;;;9.18;3.38;;;;;;;2.59;72.51;101001.97;5103696;28;20047;-64
2021/03/20 05:49:43;;;;;;;8.35;4.03;;;;;;;2.60;72.67;101009.72;5103449;28;20032;-64
2021/03/20 05:52:41;;;;;;;11.93;3.50;;;;;;;2.60;72.95;101004.59;5094401;28;20044;-64
2021/03/20 05:55:21;;;;;;;9.43;4.07;;;;;;;2.59;72.86;101007.13;5080679;28;20032;-64
2021/03/20 05:58:03;;;;;;;13.30;4.80;;;;;;;2.58;73.36;101006.25;5080580;28;20021;-64
2021/03/20 06:00:46;;;;;;;12.45;4.25;;;;;;;2.61;73.34;101000.34;5080957;28;20048;-63
2021/03/20 06:03:50;;;;;;;15.60;4.68;;;;;;;2.65;73.37;101001.34;5080661;28;20032;-64
2021/03/20 06:06:39;;;;;;;10.70;4.28;;;;;;;2.71;73.15;100991.28;5080593;28;20074;-63
2021/03/20 06:09:34;;;;;;;15.07;4.38;;;;;;;2.72;73.21;100990.47;5080895;28;20090;-64
2021/03/20 06:12:33;;;;;;;14.73;4.70;;;;;;;2.73;73.35;101000.75;5062444;28;20037;-63
2021/03/20 06:15:19;;;;;;;15.43;4.15;;;;;;;2.78;73.28;101000.91;5080566;28;20024;-63
2021/03/20 06:18:23;;;;;;;12.32;4.53;;;;;;;2.77;73.60;100991.50;5080590;28;20631;-62
2021/03/20 06:20:51;;;;;;;13.52;4.32;;;;;;;2.82;73.52;100978.81;5080467;28;20507;-64
2021/03/20 06:23:37;;;;;;;10.35;4.00;;;;;;;2.82;73.49;100991.63;5080863;28;20024;-64
2021/03/20 06:26:23;;;;;;;10.57;3.92;;;;;;;2.82;73.96;100991.63;5063841;28;20048;-64
2021/03/20 06:28:56;;;;;;;11.73;4.35;;;;;;;2.84;73.84;100982.31;5080308;28;20048;-65
2021/03/20 06:31:21;;;;;;;14.23;4.35;;;;;;;2.89;73.84;100974.78;5085828;28;20352;-64
2021/03/20 06:33:54;;;;;;;13.07;4.97;;;;;;;2.92;73.53;100978.31;5103618;28;20032;-64
2021/03/20 06:36:35;;;;;;;9.32;3.67;;;;;;;2.92;73.96;100972.31;5103293;28;20024;-64
2021/03/20 06:39:13;;;;;;;19.13;4.90;;;;;;;2.91;74.08;100967.97;5103409;28;20016;-65
2021/03/20 06:41:44;;;;;;;11.43;4.18;;;;;;;2.89;74.01;100957.66;5103186;28;20056;-64
2021/03/20 06:44:38;;;;;;;17.88;5.05;;;;;;;2.95;74.32;100969.84;5103907;28;20452;-65
2021/03/20 06:47:12;;;;;;;14.65;4.68;;;;;;;2.99;74.07;100969.09;5103360;28;20044;-65
2021/03/20 06:49:46;;;;;;;13.77;5.03;;;;;;;3.05;74.11;100958.19;5103395;28;20054;-65
2021/03/20 06:52:19;;;;;;;20.52;5.43;;;;;;;3.03;74.57;100964.94;5103301;28;20043;-64
2021/03/20 06:54:47;;;;;;;11.15;5.05;;;;;;;3.05;74.48;100955.59;5103461;28;20027;-64
2021/03/20 06:57:12;;;;;;;12.35;4.70;;;;;;;3.02;74.35;100932.44;5103007;28;20099;-63
2021/03/20 06:59:38;;;;;;;13.25;4.60;;;;;;;3.09;74.53;100934.34;5103256;28;20515;-65
2021/03/20 07:02:25;;;;;;;13.60;4.95;;;;;;;3.14;74.58;100926.78;5106517;28;20028;-64
2021/03/20 07:05:19;;;;;;;14.05;4.85;;;;;;;3.14;74.83;100935.38;5107215;28;20032;-64
2021/03/20 07:08:22;;;;;;;9.90;3.88;;;;;;;3.14;75.06;100919.97;5106836;28;20403;-64
2021/03/20 07:10:52;;;;;;;17.38;5.10;;;;;;;3.14;74.83;100911.41;5106988;28;20039;-64
2021/03/20 07:13:18;;;;;;;17.02;5.75;;;;;;;3.20;74.83;100909.00;5106811;28;20028;-64
2021/03/20 07:15:44;;;;;;;10.32;3.95;;;;;;;3.22;74.92;100915.94;5107005;28;20027;-64
2021/03/20 07:18:16;;;;;;;15.32;5.53;;;;;;;3.22;75.10;100915.94;5106628;28;20020;-64
2021/03/20 07:20:42;;;;;;;8.25;4.00;;;;;;;3.24;75.12;100913.44;5107194;28;20307;-64
2021/03/20 07:23:16;;;;;;;21.42;6.10;;;;;;;3.24;75.18;100920.25;5106533;28;20035;-64
2021/03/20 07:25:47;;;;;;;13.82;5.47;;;;;;;3.25;75.30;100916.84;5106862;28;20039;-64
2021/03/20 07:28:18;;;;;;;12.77;4.57;;;;;;;3.25;75.29;100916.84;5106107;28;20024;-63
2021/03/20 07:31:00;;;;;;;14.85;5.82;;;;;;;3.25;75.29;100912.59;5106579;28;20020;-64
2021/03/20 07:33:46;;;;;;;15.30;4.82;;;;;;;3.23;75.63;100914.22;5106300;28;20024;-64
2021/03/20 07:36:30;;;;;;;14.50;5.88;;;;;;;3.21;75.88;100913.34;5106446;28;20040;-64
2021/03/20 07:39:15;;;;;;;14.32;5.55;;;;;;;3.27;75.83;100910.06;5106230;28;20050;-64
2021/03/20 07:41:59;;;;;;;14.63;5.40;;;;;;;3.27;75.92;100904.94;5106216;28;20028;-64
2021/03/20 07:44:28;;;;;;;9.88;5.00;;;;;;;3.26;75.84;100900.66;5106204;28;20024;-63
2021/03/20 07:46:55;;;;;;;18.75;4.82;;;;;;;3.19;75.97;100904.72;5105882;28;20027;-64
2021/03/20 07:49:33;;;;;;;12.13;5.80;;;;;;;3.16;76.00;100907.19;5121706;28;20028;-64
2021/03/20 07:52:20;;;;;;;9.20;5.63;;;;;;;3.16;76.22;100897.81;5105997;28;20024;-65
2021/03/20 07:54:46;;;;;;;8.68;3.95;;;;;;;3.13;76.13;100890.00;5106320;28;20020;-64
2021/03/20 07:57:14;;;;;;;12.88;4.88;;;;;;;3.14;76.38;100883.16;5105808;28;20017;-64
2021/03/20 07:59:46;;;;;;;16.63;6.05;;;;;;;3.13;76.59;100879.72;5105874;28;20019;-64
2021/03/20 08:02:35;;;;;;;16.35;6.35;;;;;;;3.15;76.44;100879.78;5105785;28;20020;-64
2021/03/20 08:05:12;;;;;;;18.02;5.00;;;;;;;3.19;76.43;100871.34;5105885;28;20144;-63
2021/03/20 08:07:42;;;;;;;11.63;5.82;;;;;;;3.20;76.64;100865.38;5105482;28;20035;-63
2021/03/20 08:10:28;;;;;;;15.07;6.43;;;;;;;3.22;76.65;100869.75;5105672;28;20052;-64
2021/03/20 08:13:17;;;;;;;17.58;6.03;;;;;;;3.20;76.84;100861.13;5104392;28;20032;-63
2021/03/20 08:15:46;;;;;;;11.27;5.55;;;;;;;3.19;77.25;100856.84;5105655;28;20028;-63
2021/03/20 08:18:12;;;;;;;17.70;6.25;;;;;;;3.21;77.36;100844.91;5105348;28;20092;-64
2021/03/20 08:20:38;;;;;;;17.13;7.30;;;;;;;3.25;77.33;100852.69;5105538;28;20110;-63
2021/03/20 08:23:25;;;;;;;13.77;5.70;;;;;;;3.31;77.44;100845.16;5105266;28;20063;-62
2021/03/20 08:25:58;;;;;;;9.68;3.67;;;;;;;3.38;77.24;100841.09;5105250;28;20020;-63
2021/03/20 08:28:35;;;;;;;9.40;3.85;;;;;;;3.40;77.19;100829.19;5104693;28;20032;-63
2021/03/20 08:31:25;;;;;;;14.85;5.13;;;;;;;3.42;77.49;100820.69;5105280;28;20106;-63
2021/03/20 08:34:10;;;;;;;18.00;6.68;;;;;;;3.46;76.99;100814.81;5105016;28;20020;-64
2021/03/20 08:37:00;;;;;;;8.20;4.35;;;;;;;3.52;77.19;100815.78;5105112;28;20031;-62
2021/03/20 08:39:38;;;;;;;13.20;4.78;;;;;;;3.54;77.15;100811.59;5104988;28;20278;-65
2021/03/20 08:42:15;;;;;;;18.20;5.15;;;;;;;3.56;77.42;100813.34;5104777;28;20031;-64
2021/03/20 08:45:02;;;;;;;18.52;6.38;;;;;;;3.62;77.37;100815.22;5104996;28;20024;-63
2021/03/20 08:47:52;;;;;;;23.15;6.65;;;;;;;3.68;77.15;100804.25;5104802;28;20039;-64
2021/03/20 08:50:36;;;;;;;11.45;5.13;;;;;;;3.74;77.29;100811.25;5104984;28;20020;-63
2021/03/20 08:53:24;;;;;;;15.85;6.70;;;;;;;3.75;77.21;100811.28;5104799;28;20039;-64
2021/03/20 08:56:10;;;;;;;17.83;6.63;;;;;;;3.78;77.26;100806.22;5104793;28;20027;-63
2021/03/20 08:58:48;;;;;;;20.40;7.70;;;;;;;3.81;77.34;100808.00;5104471;28;20053;-63
2021/03/20 09:01:19;;;;;;;16.38;7.20;;;;;;;3.84;77.22;100810.66;5104809;28;20024;-63
2021/03/20 09:03:50;;;;;;;19.60;7.00;;;;;;;3.88;77.31;100806.47;5104548;28;20031;-63
2021/03/20 09:06:28;;;;;;;14.80;6.78;;;;;;;3.91;77.39;100810.00;5104679;28;20464;-63
2021/03/20 09:08:59;;;;;;;17.02;6.40;;;;;;;3.88;77.34;100803.91;5104522;28;20126;-63
2021/03/20 09:11:44;;;;;;;22.57;7.37;;;;;;;3.91;77.47;100802.28;5104411;28;20103;-63
2021/03/20 09:14:30;;;;;;;21.58;7.82;;;;;;;3.95;77.63;100795.50;5104433;28;20016;-64
2021/03/20 09:17:00;;;;;;;22.05;7.20;;;;;;;3.93;77.84;100800.59;5104561;28;20046;-63
2021/03/20 09:19:32;;;;;;;18.88;6.78;;;;;;;3.99;77.77;100791.31;5104563;28;20458;-64
2021/03/20 09:22:11;;;;;;;35.20;8.55;;;;;;;4.04;77.78;100788.03;5104421;28;20468;-63
2021/03/20 09:24:55;;;;;;;17.63;8.25;;;;;;;4.12;77.65;100793.34;5103470;28;20036;-63
2021/03/20 09:27:58;;;;;;;25.40;8.63;;;;;;;4.19;77.47;100792.69;5103914;28;20031;-62
2021/03/20 09:30:46;;;;;;;18.50;7.65;;;;;;;4.24;77.68;100797.06;5104263;28;20034;-64
2021/03/20 09:33:27;;;;;;;28.00;7.63;;;;;;;4.32;77.61;100785.25;5104275;28;20105;-63
2021/03/20 09:35:56;;;;;;;19.58;8.05;;;;;;;4.29;77.63;100778.34;5104241;28;20038;-63
2021/03/20 09:38:36;;;;;;;27.42;8.75;;;;;;;4.30;77.53;100781.78;5103746;28;20035;-63
2021/03/20 09:41:08;;;;;;;24.77;9.45;;;;;;;4.21;77.75;100756.75;5104270;28;20494;-63
2021/03/20 09:43:47;;;;;;;26.65;8.35;;;;;;;4.26;78.09;100770.56;5103897;28;20388;-63
2021/03/20 09:46:34;;;;;;;29.58;8.75;;;;;;;4.26;78.10;100769.69;5103580;28;20073;-62
2021/03/20 09:49:02;;;;;;;41.47;9.30;;;;;;;4.24;78.01;100767.09;5103742;28;20038;-62
2021/03/20 09:51:45;;;;;;;29.70;6.85;;;;;;;4.26;78.28;100774.84;5103935;28;20103;-63
2021/03/20 09:54:26;;;;;;;28.52;8.73;;;;;;;4.20;78.42;100768.72;5103815;28;20047;-61
2021/03/20 09:56:56;;;;;;;22.05;7.68;;;;;;;4.16;78.82;100766.03;5103461;28;20079;-63
2021/03/20 09:59:27;;;;;;;18.38;8.60;;;;;;;4.17;79.05;100762.66;5103722;28;20020;-64
2021/03/20 10:01:57;;;;;;;41.45;10.05;;;;;;;4.21;78.92;100760.19;5103894;28;20052;-63
2021/03/20 10:04:35;;;;;;;28.45;9.60;;;;;;;4.28;79.04;100766.31;5103883;28;20149;-66
2021/03/20 10:07:18;;;;;;;36.15;10.95;;;;;;;4.37;78.79;100763.09;5103623;28;20020;-61
2021/03/20 10:09:59;;;;;;;24.08;8.75;;;;;;;4.36;78.70;100747.66;5103678;28;20035;-64
2021/03/20 10:12:39;;;;;;;38.40;10.10;;;;;;;4.40;78.37;100739.16;5103460;28;20078;-62
2021/03/20 10:15:17;;;;;;;22.15;8.38;;;;;;;4.44;78.34;100738.41;5103963;28;20025;-62
2021/03/20 10:18:04;;;;;;;23.00;7.25;;;;;;;4.42;78.54;100730.66;5103681;28;20016;-63
2021/03/20 10:20:45;;;;;;;29.35;9.80;;;;;;;4.37;78.58;100732.25;5103592;28;20023;-63
2021/03/20 10:23:39;;;;;;;21.10;8.40;;;;;;;4.36;78.91;100722.78;5103744;28;20229;-61
2021/03/20 10:26:20;;;;;;;22.98;8.57;;;;;;;4.33;79.18;100709.88;5103696;28;20040;-60
2021/03/20 10:28:55;;;;;;;22.90;8.82;;;;;;;4.39;79.43;100702.31;5103347;28;20027;-60
2021/03/20 10:31:22;;;;;;;19.95;7.90;;;;;;;4.47;79.40;100692.19;5103471;28;20035;-59
2021/03/20 10:33:49;;;;;;;28.52;9.98;;;;;;;4.57;79.28;100690.66;5103480;28;20028;-60
2021/03/20 10:36:14;;;;;;;29.67;7.95;;;;;;;4.59;79.07;100684.75;5105373;28;20083;-59
2021/03/20 10:38:41;;;;;;;24.58;7.57;;;;;;;4.57;79.01;100678.69;5107579;28;20031;-58
2021/03/20 10:41:17;;;;;;;23.35;8.90;;;;;;;4.56;79.24;100687.25;5107364;28;20099;-60
2021/03/20 10:44:16;;;;;;;27.08;8.90;;;;;;;4.64;79.27;100681.38;5107108;28;20024;-59
2021/03/20 10:46:44;;;;;;;32.40;9.07;;;;;;;4.67;79.02;100679.75;5083808;28;20128;-59
2021/03/20 10:49:23;;;;;;;21.58;8.93;;;;;;;4.69;78.85;100682.34;5084304;28;20051;-59
2021/03/20 10:51:51;;;;;;;26.60;9.57;;;;;;;4.62;78.92;100686.50;5084485;28;20052;-58
2021/03/20 10:54:23;;;;;;;25.75;9.70;;;;;;;4.58;78.97;100688.13;5084067;28;20043;-59
2021/03/20 10:56:51;;;;;;;20.90;7.38;;;;;;;4.61;79.32;100686.47;5084061;28;20025;-58
2021/03/20 10:59:40;;;;;;;21.42;8.10;;;;;;;4.67;79.50;100677.19;5083952;28;20029;-60
2021/03/20 11:02:26;;;;;;;13.60;5.53;;;;;;;4.69;79.39;100666.91;5083991;28;20493;-58
2021/03/20 11:05:09;;;;;;;22.55;7.93;;;;;;;4.66;79.21;100660.03;5084152;28;20040;-60
2021/03/20 11:07:45;;;;;;;18.17;6.50;;;;;;;4.68;79.42;100660.91;5084119;28;20025;-60
2021/03/20 11:10:11;;;;;;;17.23;6.38;;;;;;;4.65;79.39;100645.41;5083672;28;20032;-60
2021/03/20 11:12:36;;;;;;;18.00;7.10;;;;;;;4.73;79.37;100630.13;5083813;28;20028;-59
2021/03/20 11:15:03;;;;;;;29.48;9.48;;;;;;;4.76;79.35;100625.03;5083948;28;20107;-60
2021/03/20 11:17:31;;;;;;;26.60;7.85;;;;;;;4.71;79.22;100596.66;5083758;28;20060;-58
2021/03/20 11:20:04;;;;;;;17.95;8.65;;;;;;;4.83;79.22;100605.44;5083673;28;20420;-60
2021/03/20 11:22:29;;;;;;;17.13;6.75;;;;;;;4.93;79.07;100612.50;5085057;28;20484;-59
2021/03/20 11:25:00;;;;;;;16.15;6.82;;;;;;;5.01;78.56;100611.75;5106728;28;20050;-60
2021/03/20 11:27:29;;;;;;;19.40;7.25;;;;;;;5.09;78.81;100612.78;5106091;28;20123;-59
2021/03/20 11:30:03;;;;;;;18.08;6.75;;;;;;;5.13;78.25;100617.13;5106387;28;20035;-59
2021/03/20 11:32:33;;;;;;;15.75;6.53;;;;;;;5.14;78.21;100624.03;5106386;28;20448;-59
2021/03/20 11:35:13;;;;;;;20.15;6.63;;;;;;;5.11;78.15;100612.81;5106420;28;20032;-58
2021/03/20 11:37:39;;;;;;;15.60;5.95;;;;;;;5.15;78.23;100602.59;5106641;28;20028;-59
2021/03/20 11:40:08;;;;;;;16.33;7.70;;;;;;;5.18;78.15;100594.03;5106350;28;20507;-58
2021/03/20 11:42:38;;;;;;;11.70;5.57;;;;;;;5.19;78.21;100591.50;5106127;28;20024;-58
2021/03/20 11:45:34;;;;;;;17.70;6.72;;;;;;;5.29;77.73;100578.75;5105908;28;20036;-60
2021/03/20 11:48:12;;;;;;;13.90;6.95;;;;;;;5.29;77.55;100571.91;5103002;28;20048;-59
2021/03/20 11:50:37;;;;;;;10.15;6.05;;;;;;;5.29;77.60;100559.03;5106165;28;20020;-60
2021/03/20 11:53:20;;;;;;;18.73;6.25;;;;;;;5.29;77.54;100553.03;5106156;28;20016;-60
2021/03/20 11:55:46;;;;;;;17.80;6.85;;;;;;;5.23;77.38;100547.78;5106317;28;20035;-63
2021/03/20 11:58:27;;;;;;;12.68;6.97;;;;;;;5.21;77.92;100533.19;5105513;28;20016;-68
2021/03/20 12:00:53;;;;;;;17.40;5.95;;;;;;;5.26;77.66;100529.81;5105845;28;20020;-62
2021/03/20 12:03:21;;;;;;;8.60;6.28;;;;;;;5.28;77.64;100515.25;5105554;28;20032;-67
2021/03/20 12:05:49;;;;;;;9.98;5.43;;;;;;;5.29;77.38;100517.84;5105886;28;20024;-64
2021/03/20 12:08:35;;;;;;;12.07;5.75;;;;;;;5.25;77.46;100510.06;5105567;28;20066;-65